sensor_id;sensor_type;location;lat;lon;timestamp;P1;durP1;ratioP1;P2;durP2;ratioP2
40945;SDS011;55635;50.264;11.918;2023-08-06T00:01:56;7.25;;;6.45;;
40945;SDS011;55635;50.264;11.918;2023-08-06T00:04:37;6.75;;;6.13;;
40945;SDS011;55635;50.264;11.918;2023-08-06T00:07:18;7.38;;;6.50;;
40945;SDS011;55635;50.264;11.918;2023-08-06T00:09:59;6.80;;;6.18;;
40945;SDS011;55635;50.264;11.918;2023-08-06T00:12:40;7.43;;;5.78;;
40945;SDS011;55635;50.264;11.918;2023-08-06T00:15:20;7.05;;;6.35;;
40945;SDS011;55635;50.264;11.918;2023-08-06T00:18:02;7.93;;;4.90;;
40945;SDS011;55635;50.264;11.918;2023-08-06T00:20:43;6.10;;;5.30;;
40945;SDS011;55635;50.264;11.918;2023-08-06T00:23:24;3.25;;;3.00;;
40945;SDS011;55635;50.264;11.918;2023-08-06T00:26:05;3.55;;;2.40;;
40945;SDS011;55635;50.264;11.918;2023-08-06T00:28:46;2.75;;;2.53;;
40945;SDS011;55635;50.264;11.918;2023-08-06T00:31:27;6.18;;;1.95;;
40945;SDS011;55635;50.264;11.918;2023-08-06T00:34:08;2.92;;;1.77;;
40945;SDS011;55635;50.264;11.918;2023-08-06T00:36:49;4.82;;;1.58;;
40945;SDS011;55635;50.264;11.918;2023-08-06T00:39:30;1.73;;;1.05;;
40945;SDS011;55635;50.264;11.918;2023-08-06T00:42:11;3.15;;;1.25;;
40945;SDS011;55635;50.264;11.918;2023-08-06T00:44:52;2.63;;;1.10;;
40945;SDS011;55635;50.264;11.918;2023-08-06T00:47:33;2.15;;;0.90;;
40945;SDS011;55635;50.264;11.918;2023-08-06T00:50:14;1.10;;;1.00;;
40945;SDS011;55635;50.264;11.918;2023-08-06T00:52:56;0.98;;;0.80;;
40945;SDS011;55635;50.264;11.918;2023-08-06T00:55:38;0.90;;;0.60;;
40945;SDS011;55635;50.264;11.918;2023-08-06T00:58:19;3.60;;;1.10;;
40945;SDS011;55635;50.264;11.918;2023-08-06T01:01:00;0.60;;;0.60;;
40945;SDS011;55635;50.264;11.918;2023-08-06T01:03:42;0.50;;;0.50;;
40945;SDS011;55635;50.264;11.918;2023-08-06T01:06:39;2.58;;;1.10;;
40945;SDS011;55635;50.264;11.918;2023-08-06T01:13:08;1.85;;;1.35;;
40945;SDS011;55635;50.264;11.918;2023-08-06T01:16:03;1.58;;;1.10;;
40945;SDS011;55635;50.264;11.918;2023-08-06T01:18:46;3.65;;;1.15;;
40945;SDS011;55635;50.264;11.918;2023-08-06T01:21:29;3.88;;;1.35;;
40945;SDS011;55635;50.264;11.918;2023-08-06T01:24:10;1.77;;;1.35;;
40945;SDS011;55635;50.264;11.918;2023-08-06T01:26:55;2.00;;;1.75;;
40945;SDS011;55635;50.264;11.918;2023-08-06T01:30:10;2.38;;;1.33;;
40945;SDS011;55635;50.264;11.918;2023-08-06T01:32:59;1.88;;;1.77;;
40945;SDS011;55635;50.264;11.918;2023-08-06T01:35:43;3.60;;;2.05;;
40945;SDS011;55635;50.264;11.918;2023-08-06T01:38:26;2.80;;;1.90;;
40945;SDS011;55635;50.264;11.918;2023-08-06T01:41:08;2.20;;;2.00;;
40945;SDS011;55635;50.264;11.918;2023-08-06T01:43:50;5.35;;;2.70;;
40945;SDS011;55635;50.264;11.918;2023-08-06T01:46:31;2.08;;;1.92;;
40945;SDS011;55635;50.264;11.918;2023-08-06T01:49:12;2.08;;;1.88;;
40945;SDS011;55635;50.264;11.918;2023-08-06T01:51:53;1.92;;;1.83;;
40945;SDS011;55635;50.264;11.918;2023-08-06T01:54:34;2.42;;;2.20;;
40945;SDS011;55635;50.264;11.918;2023-08-06T01:57:15;3.80;;;2.20;;
40945;SDS011;55635;50.264;11.918;2023-08-06T01:59:56;2.88;;;1.90;;
40945;SDS011;55635;50.264;11.918;2023-08-06T02:02:37;3.78;;;2.30;;
40945;SDS011;55635;50.264;11.918;2023-08-06T02:05:18;2.00;;;1.90;;
40945;SDS011;55635;50.264;11.918;2023-08-06T02:07:59;2.22;;;2.08;;
40945;SDS011;55635;50.264;11.918;2023-08-06T02:10:40;4.22;;;2.35;;
40945;SDS011;55635;50.264;11.918;2023-08-06T02:13:21;2.70;;;2.50;;
40945;SDS011;55635;50.264;11.918;2023-08-06T02:16:02;4.95;;;2.78;;
40945;SDS011;55635;50.264;11.918;2023-08-06T02:18:43;3.30;;;2.58;;
40945;SDS011;55635;50.264;11.918;2023-08-06T02:21:24;2.92;;;2.58;;
40945;SDS011;55635;50.264;11.918;2023-08-06T02:24:05;4.25;;;2.47;;
40945;SDS011;55635;50.264;11.918;2023-08-06T02:26:46;3.72;;;2.45;;
40945;SDS011;55635;50.264;11.918;2023-08-06T02:29:29;3.13;;;2.78;;
40945;SDS011;55635;50.264;11.918;2023-08-06T02:32:10;4.18;;;2.80;;
40945;SDS011;55635;50.264;11.918;2023-08-06T02:34:51;2.85;;;2.65;;
40945;SDS011;55635;50.264;11.918;2023-08-06T02:37:34;3.03;;;2.70;;
40945;SDS011;55635;50.264;11.918;2023-08-06T02:40:15;6.97;;;2.90;;
40945;SDS011;55635;50.264;11.918;2023-08-06T02:42:56;4.00;;;2.50;;
40945;SDS011;55635;50.264;11.918;2023-08-06T02:45:37;2.67;;;2.42;;
40945;SDS011;55635;50.264;11.918;2023-08-06T02:48:18;3.05;;;2.85;;
40945;SDS011;55635;50.264;11.918;2023-08-06T02:50:59;2.70;;;2.50;;
40945;SDS011;55635;50.264;11.918;2023-08-06T02:53:42;2.80;;;2.60;;
40945;SDS011;55635;50.264;11.918;2023-08-06T02:56:25;3.45;;;3.20;;
40945;SDS011;55635;50.264;11.918;2023-08-06T02:59:35;2.30;;;2.10;;
40945;SDS011;55635;50.264;11.918;2023-08-06T03:02:24;3.33;;;2.80;;
40945;SDS011;55635;50.264;11.918;2023-08-06T03:05:25;3.70;;;2.67;;
40945;SDS011;55635;50.264;11.918;2023-08-06T03:08:06;2.85;;;2.63;;
40945;SDS011;55635;50.264;11.918;2023-08-06T03:10:49;4.82;;;2.53;;
40945;SDS011;55635;50.264;11.918;2023-08-06T03:13:32;4.80;;;3.25;;
40945;SDS011;55635;50.264;11.918;2023-08-06T03:16:14;3.42;;;2.97;;
40945;SDS011;55635;50.264;11.918;2023-08-06T03:18:55;6.80;;;4.97;;
40945;SDS011;55635;50.264;11.918;2023-08-06T03:21:36;8.80;;;5.70;;
40945;SDS011;55635;50.264;11.918;2023-08-06T03:24:18;7.18;;;6.10;;
40945;SDS011;55635;50.264;11.918;2023-08-06T03:27:00;7.22;;;6.13;;
40945;SDS011;55635;50.264;11.918;2023-08-06T03:29:42;7.05;;;6.35;;
40945;SDS011;55635;50.264;11.918;2023-08-06T03:32:23;6.93;;;6.22;;
40945;SDS011;55635;50.264;11.918;2023-08-06T03:35:05;7.97;;;7.00;;
40945;SDS011;55635;50.264;11.918;2023-08-06T03:37:46;8.82;;;6.75;;
40945;SDS011;55635;50.264;11.918;2023-08-06T03:40:28;7.20;;;6.50;;
40945;SDS011;55635;50.264;11.918;2023-08-06T03:43:11;7.88;;;7.07;;
40945;SDS011;55635;50.264;11.918;2023-08-06T03:45:52;7.60;;;6.40;;
40945;SDS011;55635;50.264;11.918;2023-08-06T03:48:33;7.93;;;6.38;;
40945;SDS011;55635;50.264;11.918;2023-08-06T03:51:14;6.22;;;5.47;;
40945;SDS011;55635;50.264;11.918;2023-08-06T03:53:57;6.28;;;5.68;;
40945;SDS011;55635;50.264;11.918;2023-08-06T03:56:39;5.68;;;4.78;;
40945;SDS011;55635;50.264;11.918;2023-08-06T03:59:20;7.50;;;5.00;;
40945;SDS011;55635;50.264;11.918;2023-08-06T04:02:01;4.20;;;3.90;;
40945;SDS011;55635;50.264;11.918;2023-08-06T04:04:42;4.63;;;4.25;;
40945;SDS011;55635;50.264;11.918;2023-08-06T04:07:23;4.30;;;3.90;;
40945;SDS011;55635;50.264;11.918;2023-08-06T04:10:05;4.05;;;3.55;;
40945;SDS011;55635;50.264;11.918;2023-08-06T04:12:46;3.42;;;3.13;;
40945;SDS011;55635;50.264;11.918;2023-08-06T04:15:27;3.38;;;3.17;;
40945;SDS011;55635;50.264;11.918;2023-08-06T04:18:08;3.55;;;3.28;;
40945;SDS011;55635;50.264;11.918;2023-08-06T04:20:49;2.83;;;2.45;;
40945;SDS011;55635;50.264;11.918;2023-08-06T04:23:29;7.80;;;2.90;;
40945;SDS011;55635;50.264;11.918;2023-08-06T04:26:15;3.22;;;2.95;;
40945;SDS011;55635;50.264;11.918;2023-08-06T04:28:56;3.00;;;2.75;;
40945;SDS011;55635;50.264;11.918;2023-08-06T04:31:37;2.90;;;2.55;;
40945;SDS011;55635;50.264;11.918;2023-08-06T04:34:18;4.57;;;3.13;;
40945;SDS011;55635;50.264;11.918;2023-08-06T04:37:00;2.60;;;2.40;;
40945;SDS011;55635;50.264;11.918;2023-08-06T04:39:41;2.65;;;2.45;;
40945;SDS011;55635;50.264;11.918;2023-08-06T04:42:22;2.47;;;2.28;;
40945;SDS011;55635;50.264;11.918;2023-08-06T04:45:04;3.28;;;2.42;;
40945;SDS011;55635;50.264;11.918;2023-08-06T04:47:46;2.97;;;2.75;;
40945;SDS011;55635;50.264;11.918;2023-08-06T04:50:27;2.28;;;2.17;;
40945;SDS011;55635;50.264;11.918;2023-08-06T04:53:08;3.05;;;2.58;;
40945;SDS011;55635;50.264;11.918;2023-08-06T04:55:48;2.88;;;2.63;;
40945;SDS011;55635;50.264;11.918;2023-08-06T04:58:29;3.15;;;2.60;;
40945;SDS011;55635;50.264;11.918;2023-08-06T05:01:10;2.63;;;2.42;;
40945;SDS011;55635;50.264;11.918;2023-08-06T05:03:51;2.95;;;2.22;;
40945;SDS011;55635;50.264;11.918;2023-08-06T05:06:32;2.83;;;2.63;;
40945;SDS011;55635;50.264;11.918;2023-08-06T05:09:13;2.90;;;2.70;;
40945;SDS011;55635;50.264;11.918;2023-08-06T05:11:54;2.75;;;2.55;;
40945;SDS011;55635;50.264;11.918;2023-08-06T05:14:35;4.13;;;3.13;;
40945;SDS011;55635;50.264;11.918;2023-08-06T05:17:16;3.53;;;3.22;;
40945;SDS011;55635;50.264;11.918;2023-08-06T05:19:57;3.28;;;3.08;;
40945;SDS011;55635;50.264;11.918;2023-08-06T05:22:38;3.03;;;2.80;;
40945;SDS011;55635;50.264;11.918;2023-08-06T05:25:19;3.90;;;3.28;;
40945;SDS011;55635;50.264;11.918;2023-08-06T05:28:00;3.55;;;2.97;;
40945;SDS011;55635;50.264;11.918;2023-08-06T05:30:42;2.85;;;2.65;;
40945;SDS011;55635;50.264;11.918;2023-08-06T05:33:23;4.43;;;3.28;;
40945;SDS011;55635;50.264;11.918;2023-08-06T05:36:04;3.00;;;2.80;;
40945;SDS011;55635;50.264;11.918;2023-08-06T05:38:45;4.03;;;3.65;;
40945;SDS011;55635;50.264;11.918;2023-08-06T05:41:26;4.68;;;3.60;;
40945;SDS011;55635;50.264;11.918;2023-08-06T05:44:07;6.65;;;3.50;;
40945;SDS011;55635;50.264;11.918;2023-08-06T05:46:48;3.20;;;3.00;;
40945;SDS011;55635;50.264;11.918;2023-08-06T05:49:29;3.40;;;3.10;;
40945;SDS011;55635;50.264;11.918;2023-08-06T05:52:10;3.30;;;3.00;;
40945;SDS011;55635;50.264;11.918;2023-08-06T05:54:51;4.07;;;3.72;;
40945;SDS011;55635;50.264;11.918;2023-08-06T05:57:32;4.00;;;3.70;;
40945;SDS011;55635;50.264;11.918;2023-08-06T06:00:13;4.38;;;3.25;;
40945;SDS011;55635;50.264;11.918;2023-08-06T06:02:54;3.30;;;3.10;;
40945;SDS011;55635;50.264;11.918;2023-08-06T06:05:37;3.55;;;3.25;;
40945;SDS011;55635;50.264;11.918;2023-08-06T06:08:19;4.82;;;3.05;;
40945;SDS011;55635;50.264;11.918;2023-08-06T06:11:00;5.15;;;3.67;;
40945;SDS011;55635;50.264;11.918;2023-08-06T06:13:41;6.38;;;3.42;;
40945;SDS011;55635;50.264;11.918;2023-08-06T06:16:21;3.30;;;3.10;;
40945;SDS011;55635;50.264;11.918;2023-08-06T06:19:02;3.85;;;3.60;;
40945;SDS011;55635;50.264;11.918;2023-08-06T06:21:43;3.55;;;3.25;;
40945;SDS011;55635;50.264;11.918;2023-08-06T06:24:24;2.88;;;2.67;;
40945;SDS011;55635;50.264;11.918;2023-08-06T06:27:05;3.10;;;2.80;;
40945;SDS011;55635;50.264;11.918;2023-08-06T06:29:46;6.00;;;3.13;;
40945;SDS011;55635;50.264;11.918;2023-08-06T06:32:27;3.70;;;2.95;;
40945;SDS011;55635;50.264;11.918;2023-08-06T06:35:08;3.53;;;2.70;;
40945;SDS011;55635;50.264;11.918;2023-08-06T06:37:50;3.00;;;2.70;;
40945;SDS011;55635;50.264;11.918;2023-08-06T06:40:31;3.25;;;2.95;;
40945;SDS011;55635;50.264;11.918;2023-08-06T06:43:13;2.40;;;2.22;;
40945;SDS011;55635;50.264;11.918;2023-08-06T06:45:57;2.53;;;2.33;;
40945;SDS011;55635;50.264;11.918;2023-08-06T06:48:39;2.95;;;2.72;;
40945;SDS011;55635;50.264;11.918;2023-08-06T06:51:20;2.70;;;2.50;;
40945;SDS011;55635;50.264;11.918;2023-08-06T06:54:01;3.00;;;2.78;;
40945;SDS011;55635;50.264;11.918;2023-08-06T06:56:42;2.67;;;2.47;;
40945;SDS011;55635;50.264;11.918;2023-08-06T06:59:23;3.30;;;2.10;;
40945;SDS011;55635;50.264;11.918;2023-08-06T07:02:04;4.40;;;2.22;;
40945;SDS011;55635;50.264;11.918;2023-08-06T07:04:45;4.07;;;2.47;;
40945;SDS011;55635;50.264;11.918;2023-08-06T07:07:26;2.30;;;2.20;;
40945;SDS011;55635;50.264;11.918;2023-08-06T07:10:07;2.15;;;2.05;;
40945;SDS011;55635;50.264;11.918;2023-08-06T07:12:48;2.30;;;2.20;;
40945;SDS011;55635;50.264;11.918;2023-08-06T07:15:29;2.63;;;2.30;;
40945;SDS011;55635;50.264;11.918;2023-08-06T07:18:10;5.57;;;2.33;;
40945;SDS011;55635;50.264;11.918;2023-08-06T07:20:51;3.13;;;2.50;;
40945;SDS011;55635;50.264;11.918;2023-08-06T07:23:33;2.67;;;2.47;;
40945;SDS011;55635;50.264;11.918;2023-08-06T07:26:15;3.40;;;2.58;;
40945;SDS011;55635;50.264;11.918;2023-08-06T07:28:57;3.60;;;3.13;;
40945;SDS011;55635;50.264;11.918;2023-08-06T07:31:37;3.53;;;2.58;;
40945;SDS011;55635;50.264;11.918;2023-08-06T07:34:18;2.80;;;2.60;;
40945;SDS011;55635;50.264;11.918;2023-08-06T07:36:59;4.78;;;2.50;;
40945;SDS011;55635;50.264;11.918;2023-08-06T07:39:40;2.70;;;2.50;;
40945;SDS011;55635;50.264;11.918;2023-08-06T07:42:23;3.10;;;2.75;;
40945;SDS011;55635;50.264;11.918;2023-08-06T07:45:04;3.13;;;2.53;;
40945;SDS011;55635;50.264;11.918;2023-08-06T07:47:46;2.95;;;2.72;;
40945;SDS011;55635;50.264;11.918;2023-08-06T07:50:27;3.03;;;2.50;;
40945;SDS011;55635;50.264;11.918;2023-08-06T07:53:08;3.03;;;2.67;;
40945;SDS011;55635;50.264;11.918;2023-08-06T07:55:52;3.28;;;2.97;;
40945;SDS011;55635;50.264;11.918;2023-08-06T07:58:33;2.50;;;2.28;;
40945;SDS011;55635;50.264;11.918;2023-08-06T08:01:14;3.88;;;2.80;;
40945;SDS011;55635;50.264;11.918;2023-08-06T08:03:55;2.60;;;2.40;;
40945;SDS011;55635;50.264;11.918;2023-08-06T08:06:36;2.53;;;2.33;;
40945;SDS011;55635;50.264;11.918;2023-08-06T08:09:17;2.97;;;2.60;;
40945;SDS011;55635;50.264;11.918;2023-08-06T08:11:58;4.68;;;2.55;;
40945;SDS011;55635;50.264;11.918;2023-08-06T08:14:41;2.60;;;2.40;;
40945;SDS011;55635;50.264;11.918;2023-08-06T08:17:22;2.60;;;2.40;;
40945;SDS011;55635;50.264;11.918;2023-08-06T08:20:03;3.28;;;2.15;;
40945;SDS011;55635;50.264;11.918;2023-08-06T08:22:45;3.03;;;2.15;;
40945;SDS011;55635;50.264;11.918;2023-08-06T08:25:26;2.53;;;2.00;;
40945;SDS011;55635;50.264;11.918;2023-08-06T08:28:08;1.90;;;1.80;;
40945;SDS011;55635;50.264;11.918;2023-08-06T08:30:48;2.70;;;1.98;;
40945;SDS011;55635;50.264;11.918;2023-08-06T08:33:29;2.47;;;2.00;;
40945;SDS011;55635;50.264;11.918;2023-08-06T08:36:10;4.25;;;2.08;;
40945;SDS011;55635;50.264;11.918;2023-08-06T08:38:51;2.83;;;1.92;;
40945;SDS011;55635;50.264;11.918;2023-08-06T08:41:33;1.95;;;1.80;;
40945;SDS011;55635;50.264;11.918;2023-08-06T08:44:17;3.33;;;1.80;;
40945;SDS011;55635;50.264;11.918;2023-08-06T08:46:58;1.95;;;1.73;;
40945;SDS011;55635;50.264;11.918;2023-08-06T08:49:40;2.15;;;1.80;;
40945;SDS011;55635;50.264;11.918;2023-08-06T08:52:21;2.75;;;1.52;;
40945;SDS011;55635;50.264;11.918;2023-08-06T08:55:04;4.00;;;2.03;;
40945;SDS011;55635;50.264;11.918;2023-08-06T08:57:47;3.42;;;1.67;;
40945;SDS011;55635;50.264;11.918;2023-08-06T09:00:28;3.42;;;1.63;;
40945;SDS011;55635;50.264;11.918;2023-08-06T09:03:09;4.10;;;1.52;;
40945;SDS011;55635;50.264;11.918;2023-08-06T09:05:52;1.55;;;1.45;;
40945;SDS011;55635;50.264;11.918;2023-08-06T09:08:36;3.22;;;1.80;;
40945;SDS011;55635;50.264;11.918;2023-08-06T09:11:23;2.70;;;1.80;;
40945;SDS011;55635;50.264;11.918;2023-08-06T09:14:04;2.15;;;1.42;;
40945;SDS011;55635;50.264;11.918;2023-08-06T09:16:48;2.22;;;1.40;;
40945;SDS011;55635;50.264;11.918;2023-08-06T09:19:29;2.13;;;1.45;;
40945;SDS011;55635;50.264;11.918;2023-08-06T09:22:11;3.65;;;1.65;;
40945;SDS011;55635;50.264;11.918;2023-08-06T09:24:55;2.30;;;1.00;;
40945;SDS011;55635;50.264;11.918;2023-08-06T09:27:37;1.48;;;1.35;;
40945;SDS011;55635;50.264;11.918;2023-08-06T09:30:31;1.60;;;1.20;;
40945;SDS011;55635;50.264;11.918;2023-08-06T09:33:17;3.05;;;1.10;;
40945;SDS011;55635;50.264;11.918;2023-08-06T09:36:06;4.20;;;1.02;;
40945;SDS011;55635;50.264;11.918;2023-08-06T09:38:51;3.35;;;1.15;;
40945;SDS011;55635;50.264;11.918;2023-08-06T09:41:32;1.30;;;1.20;;
40945;SDS011;55635;50.264;11.918;2023-08-06T09:44:16;4.10;;;1.63;;
40945;SDS011;55635;50.264;11.918;2023-08-06T09:46:59;4.15;;;1.10;;
40945;SDS011;55635;50.264;11.918;2023-08-06T09:49:43;1.25;;;0.80;;
40945;SDS011;55635;50.264;11.918;2023-08-06T09:52:25;3.17;;;1.27;;
40945;SDS011;55635;50.264;11.918;2023-08-06T09:55:06;3.92;;;1.10;;
40945;SDS011;55635;50.264;11.918;2023-08-06T09:57:49;2.75;;;1.20;;
40945;SDS011;55635;50.264;11.918;2023-08-06T10:00:31;3.92;;;0.80;;
40945;SDS011;55635;50.264;11.918;2023-08-06T10:03:14;1.98;;;0.88;;
40945;SDS011;55635;50.264;11.918;2023-08-06T10:05:58;2.13;;;0.90;;
40945;SDS011;55635;50.264;11.918;2023-08-06T10:08:39;2.88;;;1.40;;
40945;SDS011;55635;50.264;11.918;2023-08-06T10:11:22;2.00;;;1.48;;
40945;SDS011;55635;50.264;11.918;2023-08-06T10:14:15;1.10;;;1.00;;
40945;SDS011;55635;50.264;11.918;2023-08-06T10:16:58;0.77;;;0.75;;
40945;SDS011;55635;50.264;11.918;2023-08-06T10:19:41;0.90;;;0.70;;
40945;SDS011;55635;50.264;11.918;2023-08-06T10:22:22;1.23;;;0.98;;
40945;SDS011;55635;50.264;11.918;2023-08-06T10:25:04;2.70;;;1.23;;
40945;SDS011;55635;50.264;11.918;2023-08-06T10:30:33;1.30;;;0.70;;
40945;SDS011;55635;50.264;11.918;2023-08-06T10:33:21;2.15;;;1.58;;
40945;SDS011;55635;50.264;11.918;2023-08-06T10:36:02;1.25;;;0.70;;
40945;SDS011;55635;50.264;11.918;2023-08-06T10:38:49;2.13;;;1.17;;
40945;SDS011;55635;50.264;11.918;2023-08-06T10:41:31;1.75;;;0.90;;
40945;SDS011;55635;50.264;11.918;2023-08-06T10:44:13;2.72;;;1.20;;
40945;SDS011;55635;50.264;11.918;2023-08-06T10:46:54;1.55;;;0.68;;
40945;SDS011;55635;50.264;11.918;2023-08-06T10:49:35;0.90;;;0.70;;
40945;SDS011;55635;50.264;11.918;2023-08-06T10:52:16;0.65;;;0.57;;
40945;SDS011;55635;50.264;11.918;2023-08-06T10:54:57;1.33;;;0.68;;
40945;SDS011;55635;50.264;11.918;2023-08-06T10:57:38;1.55;;;0.75;;
40945;SDS011;55635;50.264;11.918;2023-08-06T11:00:20;1.85;;;1.00;;
40945;SDS011;55635;50.264;11.918;2023-08-06T11:03:03;2.80;;;0.60;;
40945;SDS011;55635;50.264;11.918;2023-08-06T11:05:50;0.43;;;0.40;;
40945;SDS011;55635;50.264;11.918;2023-08-06T11:08:40;0.55;;;0.55;;
40945;SDS011;55635;50.264;11.918;2023-08-06T11:11:27;0.90;;;0.68;;
40945;SDS011;55635;50.264;11.918;2023-08-06T11:14:14;1.60;;;0.50;;
40945;SDS011;55635;50.264;11.918;2023-08-06T11:16:56;0.75;;;0.50;;
40945;SDS011;55635;50.264;11.918;2023-08-06T11:19:36;0.57;;;0.45;;
40945;SDS011;55635;50.264;11.918;2023-08-06T11:22:17;4.38;;;0.30;;
40945;SDS011;55635;50.264;11.918;2023-08-06T11:24:59;1.98;;;0.82;;
40945;SDS011;55635;50.264;11.918;2023-08-06T11:27:41;0.85;;;0.20;;
40945;SDS011;55635;50.264;11.918;2023-08-06T11:30:22;0.30;;;0.30;;
40945;SDS011;55635;50.264;11.918;2023-08-06T11:33:03;0.20;;;0.20;;
40945;SDS011;55635;50.264;11.918;2023-08-06T11:35:47;0.57;;;0.35;;
40945;SDS011;55635;50.264;11.918;2023-08-06T11:38:29;0.50;;;0.22;;
40945;SDS011;55635;50.264;11.918;2023-08-06T11:41:11;0.55;;;0.45;;
40945;SDS011;55635;50.264;11.918;2023-08-06T11:43:52;0.38;;;0.30;;
40945;SDS011;55635;50.264;11.918;2023-08-06T11:49:39;1.23;;;0.20;;
40945;SDS011;55635;50.264;11.918;2023-08-06T11:55:06;1.92;;;0.50;;
40945;SDS011;55635;50.264;11.918;2023-08-06T11:57:52;1.20;;;0.20;;
40945;SDS011;55635;50.264;11.918;2023-08-06T12:00:33;0.20;;;0.20;;
40945;SDS011;55635;50.264;11.918;2023-08-06T12:03:14;0.30;;;0.30;;
40945;SDS011;55635;50.264;11.918;2023-08-06T12:05:58;2.10;;;0.20;;
40945;SDS011;55635;50.264;11.918;2023-08-06T12:08:39;0.65;;;0.30;;
40945;SDS011;55635;50.264;11.918;2023-08-06T12:11:21;0.38;;;0.38;;
40945;SDS011;55635;50.264;11.918;2023-08-06T12:14:04;1.13;;;0.40;;
40945;SDS011;55635;50.264;11.918;2023-08-06T12:16:45;0.55;;;0.50;;
40945;SDS011;55635;50.264;11.918;2023-08-06T12:19:26;0.65;;;0.40;;
40945;SDS011;55635;50.264;11.918;2023-08-06T12:22:06;0.40;;;0.40;;
40945;SDS011;55635;50.264;11.918;2023-08-06T12:24:48;0.20;;;0.20;;
40945;SDS011;55635;50.264;11.918;2023-08-06T12:27:29;0.40;;;0.40;;
40945;SDS011;55635;50.264;11.918;2023-08-06T12:30:10;1.67;;;0.30;;
40945;SDS011;55635;50.264;11.918;2023-08-06T12:32:53;0.30;;;0.30;;
40945;SDS011;55635;50.264;11.918;2023-08-06T12:35:33;0.77;;;0.60;;
40945;SDS011;55635;50.264;11.918;2023-08-06T12:38:14;0.55;;;0.50;;
40945;SDS011;55635;50.264;11.918;2023-08-06T12:40:55;0.38;;;0.20;;
40945;SDS011;55635;50.264;11.918;2023-08-06T12:43:36;0.82;;;0.30;;
40945;SDS011;55635;50.264;11.918;2023-08-06T12:46:17;1.08;;;0.40;;
40945;SDS011;55635;50.264;11.918;2023-08-06T12:48:58;0.80;;;0.43;;
40945;SDS011;55635;50.264;11.918;2023-08-06T12:51:39;1.70;;;0.30;;
40945;SDS011;55635;50.264;11.918;2023-08-06T12:54:20;0.70;;;0.40;;
40945;SDS011;55635;50.264;11.918;2023-08-06T12:57:01;0.20;;;0.20;;
40945;SDS011;55635;50.264;11.918;2023-08-06T12:59:42;1.00;;;0.30;;
40945;SDS011;55635;50.264;11.918;2023-08-06T13:02:23;0.30;;;0.30;;
40945;SDS011;55635;50.264;11.918;2023-08-06T13:05:05;0.90;;;0.70;;
40945;SDS011;55635;50.264;11.918;2023-08-06T13:07:47;0.38;;;0.38;;
40945;SDS011;55635;50.264;11.918;2023-08-06T13:10:28;0.28;;;0.28;;
40945;SDS011;55635;50.264;11.918;2023-08-06T13:13:09;0.10;;;0.10;;
40945;SDS011;55635;50.264;11.918;2023-08-06T13:15:53;0.10;;;0.10;;
40945;SDS011;55635;50.264;11.918;2023-08-06T13:18:34;0.20;;;0.20;;
40945;SDS011;55635;50.264;11.918;2023-08-06T13:21:15;0.10;;;0.10;;
40945;SDS011;55635;50.264;11.918;2023-08-06T13:23:55;1.05;;;0.13;;
40945;SDS011;55635;50.264;11.918;2023-08-06T13:26:36;0.63;;;0.20;;
40945;SDS011;55635;50.264;11.918;2023-08-06T13:29:18;0.38;;;0.20;;
40945;SDS011;55635;50.264;11.918;2023-08-06T13:31:59;0.10;;;0.10;;
40945;SDS011;55635;50.264;11.918;2023-08-06T13:34:40;2.72;;;0.20;;
40945;SDS011;55635;50.264;11.918;2023-08-06T13:37:21;0.98;;;0.10;;
40945;SDS011;55635;50.264;11.918;2023-08-06T13:40:02;0.15;;;0.10;;
40945;SDS011;55635;50.264;11.918;2023-08-06T13:42:44;0.00;;;0.00;;
40945;SDS011;55635;50.264;11.918;2023-08-06T13:45:24;0.10;;;0.10;;
40945;SDS011;55635;50.264;11.918;2023-08-06T13:48:05;0.10;;;0.10;;
40945;SDS011;55635;50.264;11.918;2023-08-06T13:50:46;0.90;;;0.20;;
40945;SDS011;55635;50.264;11.918;2023-08-06T13:53:27;0.22;;;0.10;;
40945;SDS011;55635;50.264;11.918;2023-08-06T13:56:10;0.60;;;0.10;;
40945;SDS011;55635;50.264;11.918;2023-08-06T13:58:51;0.22;;;0.10;;
40945;SDS011;55635;50.264;11.918;2023-08-06T14:01:32;0.20;;;0.20;;
40945;SDS011;55635;50.264;11.918;2023-08-06T14:04:13;0.13;;;0.10;;
40945;SDS011;55635;50.264;11.918;2023-08-06T14:06:54;0.73;;;0.20;;
40945;SDS011;55635;50.264;11.918;2023-08-06T14:09:37;0.10;;;0.10;;
40945;SDS011;55635;50.264;11.918;2023-08-06T14:12:20;0.60;;;0.20;;
40945;SDS011;55635;50.264;11.918;2023-08-06T14:15:01;0.32;;;0.20;;
40945;SDS011;55635;50.264;11.918;2023-08-06T14:17:43;0.20;;;0.20;;
40945;SDS011;55635;50.264;11.918;2023-08-06T14:20:24;0.20;;;0.20;;
40945;SDS011;55635;50.264;11.918;2023-08-06T14:23:08;0.90;;;0.20;;
40945;SDS011;55635;50.264;11.918;2023-08-06T14:25:49;0.10;;;0.10;;
40945;SDS011;55635;50.264;11.918;2023-08-06T14:28:30;0.22;;;0.22;;
40945;SDS011;55635;50.264;11.918;2023-08-06T14:31:11;0.43;;;0.20;;
40945;SDS011;55635;50.264;11.918;2023-08-06T14:33:52;0.25;;;0.20;;
40945;SDS011;55635;50.264;11.918;2023-08-06T14:36:33;0.75;;;0.20;;
40945;SDS011;55635;50.264;11.918;2023-08-06T14:39:14;0.70;;;0.35;;
40945;SDS011;55635;50.264;11.918;2023-08-06T14:41:54;0.77;;;0.35;;
40945;SDS011;55635;50.264;11.918;2023-08-06T14:44:35;1.15;;;0.60;;
40945;SDS011;55635;50.264;11.918;2023-08-06T14:47:16;0.32;;;0.30;;
40945;SDS011;55635;50.264;11.918;2023-08-06T14:49:57;0.65;;;0.50;;
40945;SDS011;55635;50.264;11.918;2023-08-06T14:52:38;0.50;;;0.30;;
40945;SDS011;55635;50.264;11.918;2023-08-06T14:55:25;0.30;;;0.30;;
40945;SDS011;55635;50.264;11.918;2023-08-06T14:58:06;0.70;;;0.35;;
40945;SDS011;55635;50.264;11.918;2023-08-06T15:00:47;1.35;;;0.30;;
40945;SDS011;55635;50.264;11.918;2023-08-06T15:03:28;0.55;;;0.50;;
40945;SDS011;55635;50.264;11.918;2023-08-06T15:06:11;0.50;;;0.45;;
40945;SDS011;55635;50.264;11.918;2023-08-06T15:08:52;0.65;;;0.40;;
40945;SDS011;55635;50.264;11.918;2023-08-06T15:11:34;0.50;;;0.43;;
40945;SDS011;55635;50.264;11.918;2023-08-06T15:14:15;1.45;;;0.30;;
40945;SDS011;55635;50.264;11.918;2023-08-06T15:16:56;1.38;;;0.30;;
40945;SDS011;55635;50.264;11.918;2023-08-06T15:19:37;0.70;;;0.30;;
40945;SDS011;55635;50.264;11.918;2023-08-06T15:22:18;0.30;;;0.30;;
40945;SDS011;55635;50.264;11.918;2023-08-06T15:24:59;0.98;;;0.60;;
40945;SDS011;55635;50.264;11.918;2023-08-06T15:27:41;0.60;;;0.60;;
40945;SDS011;55635;50.264;11.918;2023-08-06T15:30:22;1.67;;;0.30;;
40945;SDS011;55635;50.264;11.918;2023-08-06T15:33:03;0.40;;;0.40;;
40945;SDS011;55635;50.264;11.918;2023-08-06T15:35:44;0.98;;;0.40;;
40945;SDS011;55635;50.264;11.918;2023-08-06T15:38:25;1.95;;;0.30;;
40945;SDS011;55635;50.264;11.918;2023-08-06T15:41:05;1.95;;;0.40;;
40945;SDS011;55635;50.264;11.918;2023-08-06T15:43:46;1.02;;;0.32;;
40945;SDS011;55635;50.264;11.918;2023-08-06T15:46:27;2.75;;;0.50;;
40945;SDS011;55635;50.264;11.918;2023-08-06T15:49:08;1.23;;;0.47;;
40945;SDS011;55635;50.264;11.918;2023-08-06T15:51:49;1.08;;;0.50;;
40945;SDS011;55635;50.264;11.918;2023-08-06T15:54:30;1.00;;;0.35;;
40945;SDS011;55635;50.264;11.918;2023-08-06T15:57:12;0.20;;;0.15;;
40945;SDS011;55635;50.264;11.918;2023-08-06T15:59:53;0.55;;;0.50;;
40945;SDS011;55635;50.264;11.918;2023-08-06T16:02:34;0.73;;;0.30;;
40945;SDS011;55635;50.264;11.918;2023-08-06T16:05:15;3.30;;;0.30;;
40945;SDS011;55635;50.264;11.918;2023-08-06T16:07:56;0.52;;;0.20;;
40945;SDS011;55635;50.264;11.918;2023-08-06T16:10:37;0.68;;;0.40;;
40945;SDS011;55635;50.264;11.918;2023-08-06T16:13:17;0.52;;;0.40;;